Time;durP1;ratioP1;P1;durP2;ratioP2;P2;SDS_P1;SDS_P2;PMS_P1;PMS_P2;Temp;Humidity;BMP_temperature;BMP_pressure;BME280_temperature;BME280_humidity;BME280_pressure;Samples;Min_cycle;Max_cycle;Signal;HPM_P1;HPM_P2
2022/11/07 00:00:14;;;;;;;7.20;3.10;;;11.50;90.30;;;;;;5053871;28;20097;-83
2022/11/07 00:02:39;;;;;;;9.10;2.60;;;11.50;90.20;;;;;;5036283;28;20049;-81
2022/11/07 00:05:06;;;;;;;4.38;2.80;;;11.60;90.10;;;;;;5036388;28;20034;-81
2022/11/07 00:07:32;;;;;;;6.35;2.45;;;11.60;90.10;;;;;;5036072;28;20036;-81
2022/11/07 00:09:57;;;;;;;3.95;2.20;;;11.50;90.10;;;;;;5036260;28;20077;-80
2022/11/07 00:12:23;;;;;;;5.57;2.42;;;11.50;90.10;;;;;;5053631;28;20018;-81
2022/11/07 00:14:50;;;;;;;6.20;2.30;;;11.50;90.00;;;;;;5036251;28;20045;-81
2022/11/07 00:17:17;;;;;;;5.75;2.78;;;11.60;90.10;;;;;;5053348;28;20052;-81
2022/11/07 00:19:43;;;;;;;4.90;2.60;;;11.60;90.10;;;;;;5036419;28;20030;-81
2022/11/07 00:22:08;;;;;;;6.88;2.70;;;11.60;90.10;;;;;;5053479;28;20407;-81
2022/11/07 00:24:34;;;;;;;4.80;2.47;;;11.60;90.00;;;;;;5035894;28;20082;-81
2022/11/07 00:26:59;;;;;;;3.20;2.25;;;11.60;90.10;;;;;;5053396;28;20055;-81
2022/11/07 00:29:25;;;;;;;4.50;2.70;;;11.60;90.00;;;;;;5053353;28;20124;-81
2022/11/07 00:31:51;;;;;;;6.95;2.55;;;11.70;90.00;;;;;;5035872;28;20040;-81
2022/11/07 00:34:16;;;;;;;8.27;3.05;;;11.70;89.90;;;;;;5053339;28;20041;-81
2022/11/07 00:36:42;;;;;;;4.32;2.60;;;11.70;89.80;;;;;;5053316;28;20029;-80
2022/11/07 00:39:09;;;;;;;7.60;2.83;;;11.70;89.80;;;;;;5035759;28;20035;-81
2022/11/07 00:41:34;;;;;;;8.00;2.63;;;11.80;89.70;;;;;;5053246;28;20045;-81
2022/11/07 00:44:00;;;;;;;5.43;2.63;;;11.80;89.50;;;;;;5053235;28;20052;-81
2022/11/07 00:46:25;;;;;;;6.07;3.00;;;11.80;89.60;;;;;;5053274;28;20041;-81
2022/11/07 00:48:51;;;;;;;4.63;2.90;;;11.80;89.60;;;;;;5035668;28;20040;-80
2022/11/07 00:51:25;;;;;;;7.80;2.80;;;11.80;89.40;;;;;;5053125;28;20057;-81
2022/11/07 00:53:51;;;;;;;6.88;2.92;;;11.80;89.40;;;;;;5053058;28;20085;-81
2022/11/07 00:56:20;;;;;;;11.82;2.40;;;11.70;89.30;;;;;;5035621;28;20109;-79
2022/11/07 00:58:46;;;;;;;6.70;2.50;;;11.70;89.40;;;;;;5053071;28;20017;-79
2022/11/07 01:01:13;;;;;;;4.97;2.60;;;11.70;89.40;;;;;;5053049;28;20026;-79
2022/11/07 01:06:25;;;;;;;5.60;2.15;;;11.60;89.60;;;;;;5038388;28;20037;-78
2022/11/07 01:08:53;;;;;;;5.95;2.22;;;11.60;89.80;;;;;;5052926;28;20044;-79
2022/11/07 01:11:18;;;;;;;6.00;2.35;;;11.50;89.90;;;;;;5052927;28;20029;-79
2022/11/07 01:13:44;;;;;;;7.68;2.70;;;11.60;89.90;;;;;;5052838;28;20065;-78
2022/11/07 01:16:10;;;;;;;6.97;2.60;;;11.50;89.90;;;;;;5052681;28;20042;-79
2022/11/07 01:18:36;;;;;;;5.13;2.10;;;11.50;90.00;;;;;;5052937;28;20049;-78
2022/11/07 01:21:07;;;;;;;5.53;2.53;;;11.50;90.20;;;;;;5052905;28;20049;-79
2022/11/07 01:23:33;;;;;;;5.80;2.55;;;11.40;90.30;;;;;;5052832;28;20025;-78
2022/11/07 01:26:06;;;;;;;5.85;2.33;;;11.40;90.20;;;;;;5052794;28;20093;-79
2022/11/07 01:28:32;;;;;;;6.80;3.08;;;11.40;90.20;;;;;;5052795;28;20085;-79
2022/11/07 01:31:01;;;;;;;6.03;2.00;;;11.40;90.20;;;;;;5052740;28;20056;-78
2022/11/07 01:33:26;;;;;;;5.80;2.10;;;11.40;90.30;;;;;;5052698;28;20049;-79
2022/11/07 01:35:52;;;;;;;4.93;1.90;;;11.40;90.40;;;;;;5052726;28;20037;-78
2022/11/07 01:38:17;;;;;;;7.57;2.78;;;11.40;90.30;;;;;;5052710;28;20029;-79
2022/11/07 01:43:40;;;;;;;5.25;2.30;;;11.50;90.40;;;;;;5038152;28;20039;-79
2022/11/07 01:46:06;;;;;;;5.68;1.98;;;11.50;90.40;;;;;;5052637;28;20033;-79
2022/11/07 01:48:32;;;;;;;5.03;2.40;;;11.50;90.40;;;;;;5052747;28;20037;-78
2022/11/07 01:50:58;;;;;;;4.38;2.10;;;11.50;90.50;;;;;;5055044;28;20061;-79
2022/11/07 01:53:23;;;;;;;8.15;2.33;;;11.50;90.50;;;;;;5038657;28;20032;-78
2022/11/07 01:55:49;;;;;;;7.80;2.05;;;11.50;90.50;;;;;;5056203;28;20025;-78
2022/11/07 01:58:14;;;;;;;10.15;3.42;;;11.50;90.40;;;;;;5056137;28;20025;-79
2022/11/07 02:00:40;;;;;;;6.00;2.33;;;11.50;90.40;;;;;;5038641;28;20026;-78
2022/11/07 02:03:14;;;;;;;4.07;1.92;;;11.50;90.40;;;;;;5038482;28;20045;-79
2022/11/07 02:05:42;;;;;;;2.70;1.50;;;11.50;90.40;;;;;;5056061;28;20033;-78
2022/11/07 02:08:09;;;;;;;9.13;2.55;;;11.40;90.50;;;;;;5055889;28;20085;-78
2022/11/07 02:10:37;;;;;;;6.53;2.40;;;11.50;90.50;;;;;;5055935;28;20032;-78
2022/11/07 02:13:03;;;;;;;3.47;2.17;;;11.50;90.50;;;;;;5054769;28;20038;-78
2022/11/07 02:15:29;;;;;;;5.65;2.70;;;11.50;90.50;;;;;;5038257;28;20022;-79
2022/11/07 02:17:57;;;;;;;5.53;2.15;;;11.50;90.50;;;;;;5038106;28;20037;-79
2022/11/07 02:20:22;;;;;;;5.78;2.97;;;11.50;90.50;;;;;;5055746;28;20037;-79
2022/11/07 02:22:51;;;;;;;5.07;2.67;;;11.50;90.50;;;;;;5038358;28;20081;-80
2022/11/07 02:25:18;;;;;;;8.50;2.50;;;11.60;90.50;;;;;;5055675;28;20047;-79
2022/11/07 02:27:46;;;;;;;7.65;2.85;;;11.60;90.60;;;;;;5055587;28;20032;-79
2022/11/07 02:30:20;;;;;;;6.05;2.78;;;11.70;90.60;;;;;;5055585;28;20026;-79
2022/11/07 02:32:46;;;;;;;6.30;2.15;;;11.70;90.60;;;;;;5038080;28;20026;-79
2022/11/07 02:35:44;;;;;;;4.40;2.30;;;11.70;90.60;;;;;;5055466;28;20032;-80
2022/11/07 02:38:18;;;;;;;5.68;2.35;;;11.70;90.50;;;;;;5037879;28;20526;-80
2022/11/07 02:40:47;;;;;;;5.85;2.30;;;11.80;90.50;;;;;;5055389;28;20049;-80
2022/11/07 02:43:15;;;;;;;7.93;2.40;;;11.80;90.50;;;;;;5037858;28;20029;-79
2022/11/07 02:45:43;;;;;;;6.70;2.00;;;11.80;90.40;;;;;;5055320;28;20033;-81
2022/11/07 02:48:09;;;;;;;3.72;2.13;;;11.80;90.40;;;;;;5055270;28;20029;-81
2022/11/07 02:50:35;;;;;;;6.53;2.20;;;11.80;90.30;;;;;;5037581;28;20037;-80
2022/11/07 02:53:00;;;;;;;6.85;2.53;;;11.80;90.40;;;;;;5055046;28;20034;-80
2022/11/07 02:55:26;;;;;;;5.45;2.35;;;11.80;90.40;;;;;;5037654;28;20030;-79
2022/11/07 02:57:52;;;;;;;7.00;2.30;;;11.80;90.30;;;;;;5055052;28;20034;-79
2022/11/07 03:00:17;;;;;;;5.80;1.95;;;11.80;90.30;;;;;;5055088;28;20029;-80
2022/11/07 03:02:45;;;;;;;6.55;2.10;;;11.80;90.30;;;;;;5053885;28;20093;-79
2022/11/07 03:05:13;;;;;;;8.95;2.20;;;11.80;90.30;;;;;;5037341;28;20017;-80
2022/11/07 03:07:41;;;;;;;5.43;2.08;;;11.80;90.40;;;;;;5054766;28;20022;-80
2022/11/07 03:10:07;;;;;;;6.82;2.10;;;11.80;90.40;;;;;;5021034;28;20030;-79
2022/11/07 03:12:33;;;;;;;6.97;2.20;;;11.70;90.40;;;;;;5037636;28;20094;-80
2022/11/07 03:14:59;;;;;;;6.68;2.72;;;11.70;90.50;;;;;;5037227;28;20029;-80
2022/11/07 03:17:24;;;;;;;7.05;2.25;;;11.70;90.50;;;;;;5036995;28;20057;-80
2022/11/07 03:19:50;;;;;;;6.85;2.03;;;11.70;90.50;;;;;;5020835;28;20110;-79
2022/11/07 03:22:15;;;;;;;8.82;2.53;;;11.70;90.70;;;;;;5037039;28;20038;-80
2022/11/07 03:24:41;;;;;;;7.13;2.22;;;11.70;90.60;;;;;;5036962;28;20041;-79
2022/11/07 03:27:06;;;;;;;9.43;2.50;;;11.70;90.80;;;;;;5054472;28;20028;-79
2022/11/07 03:29:32;;;;;;;7.65;2.13;;;11.70;91.10;;;;;;5054391;28;20038;-79
2022/11/07 03:31:58;;;;;;;8.75;2.78;;;11.70;90.70;;;;;;5054343;28;20033;-79
2022/11/07 03:34:23;;;;;;;6.18;2.30;;;11.70;90.70;;;;;;5054265;28;20044;-79
2022/11/07 03:36:49;;;;;;;6.05;2.50;;;11.70;90.70;;;;;;5054316;28;20045;-79
2022/11/07 03:39:14;;;;;;;6.90;2.80;;;11.70;90.70;;;;;;5020529;28;20025;-79
2022/11/07 03:41:40;;;;;;;5.65;2.20;;;11.70;90.70;;;;;;5054174;28;20026;-80
2022/11/07 03:44:06;;;;;;;3.35;2.17;;;11.60;90.80;;;;;;5020238;28;20025;-80
2022/11/07 03:46:31;;;;;;;4.45;2.40;;;11.60;90.90;;;;;;5020202;28;20029;-79
2022/11/07 03:48:57;;;;;;;6.53;2.10;;;11.60;90.90;;;;;;5036717;28;20036;-79
2022/11/07 03:51:22;;;;;;;8.05;2.13;;;11.60;91.00;;;;;;5054009;28;20527;-79
2022/11/07 03:53:48;;;;;;;7.22;2.53;;;11.70;91.00;;;;;;5036530;28;20022;-79
2022/11/07 03:56:13;;;;;;;9.65;2.40;;;11.70;90.90;;;;;;5054034;28;20523;-79
2022/11/07 03:58:39;;;;;;;9.55;2.15;;;11.70;90.90;;;;;;5053891;28;20025;-79
2022/11/07 04:01:05;;;;;;;5.18;2.70;;;11.70;91.00;;;;;;5053874;28;20028;-78
2022/11/07 04:03:31;;;;;;;8.93;2.53;;;11.70;91.00;;;;;;5053798;28;20054;-79
2022/11/07 04:05:57;;;;;;;7.90;2.03;;;11.70;90.90;;;;;;5020097;28;20040;-79
2022/11/07 04:08:23;;;;;;;9.52;2.78;;;11.70;91.00;;;;;;5053659;28;20037;-79
2022/11/07 04:10:48;;;;;;;7.22;1.80;;;11.70;91.10;;;;;;5053680;28;20041;-79
2022/11/07 04:18:55;;;;;;;7.93;1.98;;;11.80;91.00;;;;;;4999987;28;20027;-79
2022/11/07 04:21:20;;;;;;;9.23;2.38;;;11.80;90.90;;;;;;5053728;28;20053;-80
2022/11/07 04:23:46;;;;;;;6.57;2.80;;;11.80;90.90;;;;;;5019655;28;20033;-79
2022/11/07 04:28:56;;;;;;;4.45;1.95;;;11.90;90.80;;;;;;5053683;28;20106;-79
2022/11/07 04:31:21;;;;;;;5.35;2.78;;;11.90;90.70;;;;;;5036178;28;20030;-79
2022/11/07 04:33:47;;;;;;;6.05;2.17;;;11.90;90.80;;;;;;5053274;28;20038;-79
2022/11/07 04:36:13;;;;;;;6.90;2.20;;;11.90;90.70;;;;;;5019532;28;20045;-80
2022/11/07 04:38:38;;;;;;;4.55;2.25;;;12.00;90.70;;;;;;5053310;28;20022;-79
2022/11/07 04:41:05;;;;;;;12.23;2.60;;;12.00;90.60;;;;;;5053375;28;20376;-79
2022/11/07 04:43:30;;;;;;;8.68;2.05;;;11.90;90.60;;;;;;5035696;28;20022;-79
2022/11/07 04:45:56;;;;;;;6.10;2.22;;;12.00;90.50;;;;;;5053206;28;20038;-79
2022/11/07 04:48:22;;;;;;;6.72;2.20;;;11.90;90.50;;;;;;5053187;28;20025;-79
2022/11/07 04:50:48;;;;;;;6.50;2.13;;;11.90;90.50;;;;;;5053140;28;20037;-79
2022/11/07 04:53:15;;;;;;;4.00;1.85;;;11.90;90.50;;;;;;5035616;28;20013;-79
2022/11/07 04:55:41;;;;;;;5.35;2.00;;;11.90;90.50;;;;;;5053131;28;20036;-79
2022/11/07 04:58:07;;;;;;;9.40;2.25;;;11.90;90.50;;;;;;5052994;28;20022;-79
2022/11/07 05:00:33;;;;;;;6.22;2.20;;;11.90;90.40;;;;;;5053039;28;20028;-79
2022/11/07 05:02:59;;;;;;;7.82;2.47;;;11.90;90.50;;;;;;5035640;28;20026;-79
2022/11/07 05:05:24;;;;;;;9.07;2.08;;;11.90;90.50;;;;;;5035587;28;20030;-79
2022/11/07 05:07:50;;;;;;;6.55;1.80;;;11.90;90.40;;;;;;5052922;28;20036;-79
2022/11/07 05:10:27;;;;;;;7.13;2.13;;;11.90;90.50;;;;;;5035450;28;20057;-79
2022/11/07 05:12:53;;;;;;;7.25;2.22;;;11.80;90.50;;;;;;5053071;28;20048;-78
2022/11/07 05:15:19;;;;;;;7.25;1.85;;;11.80;90.40;;;;;;5052959;28;20030;-79
2022/11/07 05:17:44;;;;;;;3.60;1.55;;;11.80;90.50;;;;;;5052676;28;20061;-78
2022/11/07 05:20:32;;;;;;;6.18;1.80;;;11.90;90.60;;;;;;5035406;28;20061;-79
2022/11/07 05:23:14;;;;;;;10.38;1.90;;;11.90;90.50;;;;;;5052806;28;20077;-79
2022/11/07 05:26:05;;;;;;;7.80;1.95;;;11.90;90.50;;;;;;5055159;28;20056;-79
2022/11/07 05:28:31;;;;;;;6.03;2.10;;;11.90;90.50;;;;;;5052212;28;20049;-79
2022/11/07 05:30:59;;;;;;;7.53;2.20;;;11.90;90.50;;;;;;5039275;28;20029;-79
2022/11/07 05:33:25;;;;;;;8.05;2.25;;;11.90;90.50;;;;;;5056581;28;20029;-79
2022/11/07 05:35:50;;;;;;;7.38;2.00;;;12.00;90.50;;;;;;5039013;28;20064;-79
2022/11/07 05:38:16;;;;;;;7.95;2.05;;;12.00;90.50;;;;;;5056530;28;20040;-79
2022/11/07 05:40:42;;;;;;;5.57;1.63;;;12.00;90.40;;;;;;5056459;28;20053;-79
2022/11/07 05:43:10;;;;;;;5.57;1.55;;;12.00;90.40;;;;;;5056603;28;20033;-79
2022/11/07 05:45:37;;;;;;;13.50;1.95;;;12.00;90.20;;;;;;5056405;28;20018;-79
2022/11/07 05:48:05;;;;;;;11.77;2.20;;;12.10;90.20;;;;;;5056331;28;20022;-80
2022/11/07 05:50:30;;;;;;;6.95;2.00;;;12.10;90.20;;;;;;5056323;28;20025;-79
2022/11/07 05:52:57;;;;;;;5.50;2.00;;;12.10;90.10;;;;;;5038712;28;20041;-79
2022/11/07 05:55:23;;;;;;;5.90;1.90;;;12.10;90.40;;;;;;5038712;28;20089;-79
2022/11/07 05:57:49;;;;;;;5.32;1.90;;;12.10;90.10;;;;;;5038860;28;20018;-80
2022/11/07 06:00:15;;;;;;;10.07;2.03;;;12.10;90.00;;;;;;5038778;28;20052;-79
2022/11/07 06:02:41;;;;;;;2.95;1.50;;;12.20;90.30;;;;;;5056077;28;20021;-79
2022/11/07 06:05:07;;;;;;;9.70;1.77;;;12.10;89.90;;;;;;5055992;28;20057;-79
2022/11/07 06:07:37;;;;;;;6.65;1.85;;;12.20;90.00;;;;;;5038467;28;20029;-80
2022/11/07 06:10:07;;;;;;;10.27;2.20;;;12.20;89.70;;;;;;5056125;28;20022;-80
2022/11/07 06:12:33;;;;;;;9.00;1.67;;;12.20;89.50;;;;;;5055508;28;20026;-79
2022/11/07 06:14:58;;;;;;;8.75;1.90;;;12.20;89.50;;;;;;5038391;28;20048;-80
2022/11/07 06:17:24;;;;;;;5.15;1.90;;;12.20;89.50;;;;;;5055644;28;20049;-80
2022/11/07 06:19:49;;;;;;;3.67;1.70;;;12.20;89.40;;;;;;5055740;28;20032;-79
2022/11/07 06:22:15;;;;;;;6.53;1.98;;;12.20;89.50;;;;;;5055686;28;20036;-80
2022/11/07 06:24:41;;;;;;;4.15;1.50;;;12.20;89.40;;;;;;5038250;28;20024;-80
2022/11/07 06:27:06;;;;;;;11.48;2.10;;;12.20;89.30;;;;;;5055576;28;20511;-80
2022/11/07 06:29:32;;;;;;;2.95;1.65;;;12.20;89.10;;;;;;5055568;28;20033;-79
2022/11/07 06:31:58;;;;;;;6.72;1.77;;;12.10;89.00;;;;;;5037986;28;20034;-80
2022/11/07 06:34:23;;;;;;;9.85;1.90;;;12.20;89.30;;;;;;5037839;28;20101;-80
2022/11/07 06:36:53;;;;;;;6.57;1.60;;;12.20;89.30;;;;;;5055079;28;20029;-79
2022/11/07 06:39:19;;;;;;;8.45;1.58;;;12.20;89.30;;;;;;5055355;28;20077;-80
2022/11/07 06:41:44;;;;;;;9.00;1.80;;;12.20;89.30;;;;;;5055379;28;20032;-79
2022/11/07 06:44:10;;;;;;;7.68;2.00;;;12.30;89.30;;;;;;5038092;28;20029;-80
2022/11/07 06:46:35;;;;;;;5.10;1.67;;;12.30;89.30;;;;;;5054192;28;20029;-80
2022/11/07 06:49:01;;;;;;;7.05;1.88;;;12.30;89.10;;;;;;5037760;28;20029;-80
2022/11/07 06:51:27;;;;;;;12.20;1.75;;;12.30;89.10;;;;;;5055143;28;20029;-80
2022/11/07 06:53:53;;;;;;;6.38;1.50;;;12.30;88.90;;;;;;5055047;28;20029;-80
2022/11/07 06:56:19;;;;;;;7.40;2.38;;;12.30;88.90;;;;;;5055059;28;20029;-80
2022/11/07 06:58:44;;;;;;;8.40;1.58;;;12.30;88.80;;;;;;5037548;28;20025;-80
2022/11/07 07:01:14;;;;;;;11.82;2.13;;;12.30;89.70;;;;;;5037526;28;20091;-79
2022/11/07 07:03:41;;;;;;;6.03;1.67;;;12.40;88.90;;;;;;5054951;28;20041;-79
2022/11/07 07:06:11;;;;;;;9.73;2.28;;;12.40;88.80;;;;;;5054866;28;20049;-80
2022/11/07 07:08:36;;;;;;;8.77;1.83;;;12.40;88.80;;;;;;5054787;28;20026;-79
2022/11/07 07:11:04;;;;;;;5.07;1.75;;;12.40;88.60;;;;;;5021093;28;20039;-79
2022/11/07 07:13:30;;;;;;;4.05;1.58;;;12.40;88.70;;;;;;5054666;28;20052;-79
2022/11/07 07:15:57;;;;;;;4.72;1.48;;;12.40;88.70;;;;;;5054474;28;20033;-78
2022/11/07 07:18:24;;;;;;;9.18;2.25;;;12.40;88.70;;;;;;5054706;28;20029;-78
2022/11/07 07:20:50;;;;;;;5.65;1.30;;;12.50;88.60;;;;;;5054758;28;20021;-79
2022/11/07 07:23:18;;;;;;;5.85;1.45;;;12.50;89.10;;;;;;5054591;28;20025;-79
2022/11/07 07:25:44;;;;;;;7.80;1.60;;;12.50;88.70;;;;;;5054513;28;20022;-78
2022/11/07 07:28:10;;;;;;;7.53;1.60;;;12.60;88.40;;;;;;5037009;28;20032;-78
2022/11/07 07:30:35;;;;;;;9.23;1.65;;;12.60;88.60;;;;;;5054396;28;20029;-79
2022/11/07 07:33:01;;;;;;;3.30;1.27;;;12.60;88.40;;;;;;5054454;28;20093;-80
2022/11/07 07:35:26;;;;;;;4.85;1.45;;;12.60;88.30;;;;;;5020427;28;20029;-79
2022/11/07 07:37:52;;;;;;;7.07;1.77;;;12.60;88.30;;;;;;5036968;28;20068;-78
2022/11/07 07:40:18;;;;;;;5.15;1.75;;;12.70;88.30;;;;;;5036718;28;20124;-78
2022/11/07 07:42:45;;;;;;;7.80;1.50;;;12.70;88.20;;;;;;5036716;28;20029;-79
2022/11/07 07:45:12;;;;;;;8.20;1.98;;;12.70;87.90;;;;;;5036672;28;20056;-79
2022/11/07 07:47:38;;;;;;;6.88;1.50;;;12.80;88.00;;;;;;5053582;28;20029;-78
2022/11/07 07:50:05;;;;;;;12.60;2.25;;;12.80;87.70;;;;;;5054106;28;20117;-79
2022/11/07 07:52:30;;;;;;;7.80;1.63;;;12.90;87.80;;;;;;5053962;28;20057;-78
2022/11/07 07:54:56;;;;;;;6.75;1.48;;;12.80;87.70;;;;;;5053902;28;20045;-78
2022/11/07 07:57:22;;;;;;;5.95;1.75;;;12.80;87.70;;;;;;5054072;28;20041;-79
2022/11/07 07:59:47;;;;;;;8.13;2.22;;;12.80;87.60;;;;;;5036444;28;20052;-79
2022/11/07 08:02:13;;;;;;;8.55;1.67;;;12.90;87.60;;;;;;5036296;28;20052;-79
2022/11/07 08:04:42;;;;;;;7.50;2.08;;;12.90;87.50;;;;;;5053779;28;20033;-80
2022/11/07 08:07:08;;;;;;;5.30;1.58;;;13.00;87.60;;;;;;5036258;28;20033;-79
2022/11/07 08:09:35;;;;;;;5.72;1.52;;;13.00;87.50;;;;;;5053665;28;20101;-79
2022/11/07 08:12:05;;;;;;;9.15;1.38;;;13.00;87.50;;;;;;5036229;28;20097;-79
2022/11/07 08:14:31;;;;;;;8.20;1.85;;;13.10;87.50;;;;;;5053555;28;20029;-80
2022/11/07 08:16:57;;;;;;;8.52;1.38;;;13.10;87.50;;;;;;5053336;28;20030;-80
2022/11/07 08:19:23;;;;;;;4.75;1.38;;;13.10;87.40;;;;;;5053518;28;20053;-80
2022/11/07 08:21:49;;;;;;;6.53;1.40;;;13.10;87.70;;;;;;5053695;28;20017;-79
2022/11/07 08:24:15;;;;;;;5.20;1.50;;;13.10;87.60;;;;;;5036118;28;20111;-79
2022/11/07 08:26:40;;;;;;;8.30;1.70;;;13.20;87.50;;;;;;5053604;28;20025;-80
2022/11/07 08:29:06;;;;;;;8.40;1.70;;;13.30;87.80;;;;;;5035911;28;20509;-79
2022/11/07 08:31:31;;;;;;;7.75;2.10;;;13.20;87.40;;;;;;5019526;28;20033;-79
2022/11/07 08:33:58;;;;;;;9.85;1.98;;;13.30;87.80;;;;;;5035978;28;20045;-80
2022/11/07 08:36:24;;;;;;;9.48;1.73;;;13.30;87.50;;;;;;5053465;28;20029;-80
2022/11/07 08:38:50;;;;;;;4.25;1.33;;;13.40;88.20;;;;;;5053306;28;20032;-78
2022/11/07 08:41:15;;;;;;;6.65;1.63;;;13.30;87.30;;;;;;5053277;28;20022;-79
2022/11/07 08:43:41;;;;;;;8.65;1.92;;;13.40;87.30;;;;;;5019362;28;20053;-78
2022/11/07 08:46:07;;;;;;;8.60;1.35;;;13.40;88.10;;;;;;5053179;28;20068;-79
2022/11/07 08:48:33;;;;;;;8.88;1.45;;;13.50;87.50;;;;;;5053150;28;20030;-79
2022/11/07 08:51:01;;;;;;;5.93;1.40;;;13.60;87.00;;;;;;5053168;28;20045;-79
2022/11/07 08:53:28;;;;;;;5.07;1.30;;;14.20;85.30;;;;;;5035610;28;20394;-79
2022/11/07 08:56:08;;;;;;;6.65;1.50;;;14.50;84.60;;;;;;5053121;28;20025;-79
2022/11/07 08:58:35;;;;;;;5.65;1.75;;;14.70;83.70;;;;;;5053138;28;20052;-78
2022/11/07 09:01:03;;;;;;;8.13;1.50;;;14.60;83.20;;;;;;5055920;28;20022;-80
2022/11/07 09:03:29;;;;;;;3.28;1.58;;;14.40;83.10;;;;;;5057124;28;20026;-80
2022/11/07 09:05:56;;;;;;;7.53;1.50;;;14.30;83.40;;;;;;5039720;28;20037;-80
2022/11/07 09:08:22;;;;;;;7.55;1.42;;;14.20;84.80;;;;;;5056993;28;20018;-80
2022/11/07 09:10:48;;;;;;;6.50;1.90;;;14.20;83.80;;;;;;5039708;28;20045;-79
2022/11/07 09:13:13;;;;;;;7.38;2.13;;;14.20;84.60;;;;;;5056960;28;20034;-80
2022/11/07 09:15:39;;;;;;;8.75;1.95;;;14.10;85.00;;;;;;5039532;28;20030;-81
2022/11/07 09:18:05;;;;;;;6.45;1.42;;;14.10;84.90;;;;;;5056794;28;20052;-79
2022/11/07 09:20:32;;;;;;;9.30;1.92;;;14.00;85.30;;;;;;5056901;28;20081;-79
2022/11/07 09:22:59;;;;;;;6.30;1.67;;;14.00;85.30;;;;;;5056833;28;20060;-79
2022/11/07 09:25:25;;;;;;;9.93;2.10;;;13.90;85.30;;;;;;5056794;28;20381;-79
2022/11/07 09:27:51;;;;;;;5.03;1.25;;;13.90;85.80;;;;;;5039373;28;20083;-79
2022/11/07 09:30:18;;;;;;;8.98;1.90;;;13.90;85.90;;;;;;5056796;28;20056;-79
2022/11/07 09:32:43;;;;;;;8.50;2.15;;;13.90;86.10;;;;;;5056680;28;20026;-79
2022/11/07 09:35:09;;;;;;;5.80;1.83;;;13.90;86.30;;;;;;5039054;28;20477;-79
2022/11/07 09:37:39;;;;;;;6.00;1.90;;;13.90;85.80;;;;;;5056764;28;20033;-79
2022/11/07 09:40:23;;;;;;;7.32;2.17;;;13.90;85.90;;;;;;5039124;28;20032;-79
2022/11/07 09:43:13;;;;;;;5.53;1.83;;;13.90;86.20;;;;;;5056694;28;20029;-79
2022/11/07 09:46:09;;;;;;;8.35;1.60;;;13.90;86.30;;;;;;5038855;28;20044;-79
2022/11/07 09:48:43;;;;;;;7.70;2.13;;;13.90;86.50;;;;;;5006171;28;20036;-79
2022/11/07 09:51:18;;;;;;;6.88;1.75;;;13.90;86.20;;;;;;5038948;28;20031;-79
2022/11/07 09:53:48;;;;;;;9.25;1.98;;;13.90;86.20;;;;;;5056376;28;20036;-79
2022/11/07 09:56:14;;;;;;;4.38;1.90;;;13.90;86.20;;;;;;5056292;28;20020;-79
2022/11/07 09:58:50;;;;;;;6.07;2.13;;;13.90;86.10;;;;;;5056185;28;20021;-79
2022/11/07 10:01:17;;;;;;;8.30;2.10;;;13.90;86.20;;;;;;5055168;28;20025;-78
2022/11/07 10:03:43;;;;;;;4.45;1.63;;;14.00;86.60;;;;;;5038762;28;20040;-80
2022/11/07 10:06:31;;;;;;;5.28;1.92;;;14.00;86.80;;;;;;5056077;28;20025;-80
2022/11/07 10:09:11;;;;;;;6.70;1.77;;;14.00;86.50;;;;;;5055955;28;20061;-79
2022/11/07 10:11:56;;;;;;;6.03;1.98;;;14.00;86.00;;;;;;5037986;28;20030;-79
2022/11/07 10:14:35;;;;;;;5.75;1.90;;;14.00;86.70;;;;;;5055851;28;20029;-80
2022/11/07 10:17:22;;;;;;;7.22;1.80;;;14.00;86.20;;;;;;5055705;28;20060;-79
2022/11/07 10:20:29;;;;;;;9.23;2.20;;;14.10;86.80;;;;;;5055770;28;20049;-78
2022/11/07 10:23:21;;;;;;;7.82;1.88;;;14.20;86.60;;;;;;5001332;28;20033;-79
2022/11/07 10:26:11;;;;;;;6.70;1.83;;;14.20;85.90;;;;;;5055737;28;20029;-79
2022/11/07 10:28:58;;;;;;;4.90;2.00;;;14.20;85.10;;;;;;5043113;28;20061;-78
2022/11/07 10:31:35;;;;;;;5.63;1.65;;;14.20;86.30;;;;;;5038069;28;20057;-79
2022/11/07 10:34:19;;;;;;;3.15;1.45;;;14.20;85.20;;;;;;5038051;28;20029;-78
2022/11/07 10:36:45;;;;;;;4.88;1.50;;;14.20;85.00;;;;;;5055617;28;20040;-78
2022/11/07 10:39:17;;;;;;;9.10;1.83;;;14.20;86.10;;;;;;5055435;28;20021;-78
2022/11/07 10:42:14;;;;;;;9.23;2.00;;;14.10;85.00;;;;;;5054497;28;20018;-78
2022/11/07 10:44:42;;;;;;;7.35;2.25;;;14.20;85.50;;;;;;5055402;28;20037;-78
2022/11/07 10:47:15;;;;;;;7.88;1.88;;;14.20;85.50;;;;;;5055313;28;20025;-78
2022/11/07 10:50:00;;;;;;;6.30;1.83;;;14.20;85.50;;;;;;5055236;28;20045;-79
2022/11/07 10:52:27;;;;;;;6.75;1.90;;;14.20;86.00;;;;;;5037773;28;20493;-79
2022/11/07 10:55:07;;;;;;;7.60;1.95;;;14.20;85.30;;;;;;5055127;28;20030;-78
2022/11/07 10:57:34;;;;;;;8.00;1.83;;;14.30;85.40;;;;;;5055096;28;20060;-79
2022/11/07 11:00:01;;;;;;;7.78;2.00;;;14.30;85.20;;;;;;5055115;28;20085;-79
2022/11/07 11:02:39;;;;;;;9.23;2.10;;;14.30;85.10;;;;;;5055053;28;20082;-79
2022/11/07 11:05:21;;;;;;;8.30;2.50;;;14.30;84.50;;;;;;5055156;28;20029;-79
2022/11/07 11:07:47;;;;;;;8.15;2.70;;;14.40;85.00;;;;;;5037442;28;20484;-79
2022/11/07 11:10:17;;;;;;;8.43;2.15;;;14.40;85.00;;;;;;5037372;28;20040;-79
2022/11/07 11:12:47;;;;;;;11.32;3.72;;;14.50;84.80;;;;;;5037206;28;20057;-79
2022/11/07 11:15:42;;;;;;;9.77;2.00;;;14.50;84.80;;;;;;5054723;28;20032;-79
2022/11/07 11:18:17;;;;;;;9.93;2.30;;;14.60;84.20;;;;;;5054489;28;20396;-79
2022/11/07 11:20:55;;;;;;;6.15;1.58;;;14.60;83.90;;;;;;5054642;28;20064;-78
2022/11/07 11:23:28;;;;;;;9.90;2.40;;;14.60;84.30;;;;;;5036280;28;20021;-79
2022/11/07 11:26:06;;;;;;;8.00;2.08;;;14.60;84.10;;;;;;5037090;28;20028;-78
2022/11/07 11:28:44;;;;;;;10.60;1.77;;;14.70;83.60;;;;;;5054504;28;20025;-78
2022/11/07 11:31:24;;;;;;;10.13;1.92;;;14.60;83.40;;;;;;5054629;28;20028;-78
2022/11/07 11:34:04;;;;;;;10.95;2.17;;;14.70;84.50;;;;;;5054404;28;20033;-80
2022/11/07 11:36:37;;;;;;;9.45;1.70;;;14.70;83.50;;;;;;5054514;28;20041;-79
2022/11/07 11:39:25;;;;;;;13.90;2.38;;;14.70;82.90;;;;;;5054337;28;20098;-80
2022/11/07 11:41:59;;;;;;;7.13;1.67;;;14.80;82.80;;;;;;5054203;28;20045;-80
2022/11/07 11:44:44;;;;;;;9.90;2.88;;;14.80;82.10;;;;;;5054344;28;20021;-80
2022/11/07 11:47:23;;;;;;;5.57;1.83;;;14.90;82.20;;;;;;5054135;28;20056;-79
2022/11/07 11:49:55;;;;;;;7.22;1.65;;;14.90;81.30;;;;;;5054157;28;20081;-80
2022/11/07 11:52:23;;;;;;;8.75;1.48;;;14.90;81.80;;;;;;5036634;28;20432;-80
2022/11/07 11:54:55;;;;;;;8.30;2.00;;;14.90;81.70;;;;;;5053954;28;20032;-80
2022/11/07 11:57:39;;;;;;;9.95;2.28;;;15.00;82.00;;;;;;5053973;28;20025;-80
2022/11/07 12:00:14;;;;;;;4.60;1.27;;;15.10;81.50;;;;;;5054007;28;20038;-80
2022/11/07 12:03:05;;;;;;;7.32;1.90;;;15.10;81.00;;;;;;5054025;28;20022;-79
2022/11/07 12:05:55;;;;;;;3.92;1.30;;;15.10;81.20;;;;;;5053909;28;20022;-79
2022/11/07 12:09:09;;;;;;;12.27;2.10;;;15.10;81.40;;;;;;5036225;28;20026;-79
2022/11/07 12:12:07;;;;;;;3.95;1.50;;;15.10;80.90;;;;;;4966369;28;20117;-79
2022/11/07 12:14:48;;;;;;;4.60;1.60;;;15.10;80.80;;;;;;5053686;28;20026;-79
2022/11/07 12:17:24;;;;;;;6.47;1.65;;;15.20;80.20;;;;;;5053327;28;20053;-78
2022/11/07 12:20:17;;;;;;;8.05;1.73;;;15.20;80.30;;;;;;5052662;28;20045;-79
2022/11/07 12:22:43;;;;;;;5.25;1.80;;;15.10;80.30;;;;;;5031982;28;20037;-79
2022/11/07 12:25:29;;;;;;;8.90;2.47;;;15.20;81.10;;;;;;5053634;28;20100;-79
2022/11/07 12:28:22;;;;;;;7.25;1.90;;;15.30;80.30;;;;;;5053441;28;20037;-78
2022/11/07 12:31:12;;;;;;;8.80;1.80;;;15.30;80.40;;;;;;5053459;28;20032;-79
2022/11/07 12:33:55;;;;;;;8.02;1.70;;;15.30;79.60;;;;;;5053175;28;20114;-80
2022/11/07 12:36:48;;;;;;;9.93;1.80;;;15.30;79.10;;;;;;5035887;28;20029;-80
2022/11/07 12:39:19;;;;;;;7.15;1.67;;;15.30;79.50;;;;;;5053462;28;20029;-78
2022/11/07 12:42:05;;;;;;;10.98;2.28;;;15.30;79.30;;;;;;5035734;28;20384;-78
2022/11/07 12:44:37;;;;;;;10.30;2.35;;;15.30;79.90;;;;;;5053295;28;20024;-79
2022/11/07 12:47:50;;;;;;;9.38;2.15;;;15.30;79.90;;;;;;5035691;28;20088;-79
2022/11/07 12:50:30;;;;;;;7.38;2.40;;;15.30;78.10;;;;;;5044249;28;20048;-80
2022/11/07 12:53:17;;;;;;;8.77;2.00;;;15.30;78.90;;;;;;5053315;28;20063;-79
2022/11/07 12:55:50;;;;;;;6.05;1.50;;;15.30;78.90;;;;;;5053164;28;20029;-80
2022/11/07 12:58:30;;;;;;;9.00;1.60;;;15.40;78.60;;;;;;5053171;28;20013;-79
2022/11/07 13:00:56;;;;;;;5.43;1.60;;;15.50;78.80;;;;;;5053131;28;20052;-79
2022/11/07 13:04:05;;;;;;;6.13;1.40;;;15.50;79.20;;;;;;5053073;28;20057;-78
2022/11/07 13:06:45;;;;;;;5.10;1.40;;;15.60;77.70;;;;;;4953922;29;20108;-79
2022/11/07 13:09:42;;;;;;;8.07;1.50;;;15.60;77.80;;;;;;5047756;28;20053;-78
2022/11/07 13:12:19;;;;;;;8.25;1.88;;;15.70;78.90;;;;;;5052249;28;20022;-78
2022/11/07 13:14:46;;;;;;;7.95;1.48;;;15.80;79.80;;;;;;5052988;28;20030;-78